Time;durP1;ratioP1;P1;durP2;ratioP2;P2;SDS_P1;SDS_P2;PMS_P1;PMS_P2;Temp;Humidity;BMP_temperature;BMP_pressure;BME280_temperature;BME280_humidity;BME280_pressure;Samples;Min_cycle;Max_cycle;Signal;HPM_P1;HPM_P2
2021/06/09 00:01:04;;;;;;;33.97;24.75;;;14.10;99.90;;;;;;5045202;28;20067;-59
2021/06/09 00:03:31;;;;;;;33.10;24.80;;;14.10;99.90;;;;;;5046100;28;20041;-58
2021/06/09 00:05:57;;;;;;;34.90;24.45;;;14.10;99.90;;;;;;5045236;28;20120;-58
2021/06/09 00:08:23;;;;;;;35.80;25.85;;;14.10;99.90;;;;;;5046365;28;20045;-58
2021/06/09 00:10:54;;;;;;;37.05;24.83;;;14.10;99.90;;;;;;5045531;28;20045;-58
2021/06/09 00:13:21;;;;;;;38.30;26.40;;;14.10;99.90;;;;;;5045717;28;20045;-58
2021/06/09 00:15:48;;;;;;;36.80;25.60;;;14.10;99.90;;;;;;5038834;28;20045;-58
2021/06/09 00:18:14;;;;;;;43.60;29.70;;;14.10;99.90;;;;;;5045239;28;20064;-58
2021/06/09 00:20:39;;;;;;;40.67;28.98;;;14.10;99.90;;;;;;5045249;28;20065;-59
2021/06/09 00:23:05;;;;;;;37.55;26.95;;;14.10;99.90;;;;;;5045782;28;20049;-58
2021/06/09 00:25:31;;;;;;;41.60;28.50;;;13.90;99.90;;;;;;5045017;28;20042;-59
2021/06/09 00:27:59;;;;;;;40.63;28.33;;;14.10;99.90;;;;;;5043736;28;20055;-58
2021/06/09 00:30:34;;;;;;;49.38;28.83;;;14.00;99.90;;;;;;5045006;28;20065;-58
2021/06/09 00:33:01;;;;;;;41.08;28.48;;;14.00;99.90;;;;;;5045622;28;20049;-58
2021/06/09 00:35:28;;;;;;;37.88;28.65;;;14.00;99.90;;;;;;5045170;28;20064;-59
2021/06/09 00:37:54;;;;;;;43.75;29.73;;;14.00;99.90;;;;;;5045309;28;20179;-58
2021/06/09 00:40:20;;;;;;;39.50;28.52;;;14.00;99.90;;;;;;5044977;28;20464;-58
2021/06/09 00:43:06;;;;;;;40.28;28.02;;;14.00;99.90;;;;;;5045433;28;20101;-58
2021/06/09 00:45:34;;;;;;;47.13;29.30;;;13.90;99.90;;;;;;5043579;28;20128;-58
2021/06/09 00:48:00;;;;;;;41.20;29.15;;;13.90;99.90;;;;;;5044997;28;20045;-58
2021/06/09 00:50:26;;;;;;;42.00;28.15;;;13.90;99.90;;;;;;5044895;28;20041;-58
2021/06/09 00:52:52;;;;;;;41.63;29.77;;;13.80;99.90;;;;;;5045662;28;20120;-58
2021/06/09 00:55:18;;;;;;;46.42;30.27;;;13.80;99.90;;;;;;5031746;28;20084;-58
2021/06/09 00:57:45;;;;;;;44.55;29.42;;;13.80;99.90;;;;;;5043828;28;20041;-58
2021/06/09 01:00:12;;;;;;;51.20;31.95;;;13.80;99.90;;;;;;5043863;28;20068;-58
2021/06/09 01:02:39;;;;;;;47.75;30.27;;;13.80;99.90;;;;;;5044526;28;20091;-58
2021/06/09 01:05:06;;;;;;;43.85;30.00;;;13.80;99.90;;;;;;5044820;28;20088;-58
2021/06/09 01:07:38;;;;;;;46.10;31.60;;;13.80;99.90;;;;;;5044860;28;20124;-58
2021/06/09 01:10:06;;;;;;;44.20;30.33;;;13.80;99.90;;;;;;5044847;28;20056;-58
2021/06/09 01:12:33;;;;;;;46.95;30.67;;;13.80;99.90;;;;;;5044472;28;20037;-58
2021/06/09 01:15:00;;;;;;;50.30;33.55;;;13.80;99.90;;;;;;5038305;28;20060;-58
2021/06/09 01:17:28;;;;;;;;;;;13.80;99.90;;;;;;5044813;28;20049;-58
2021/06/09 01:19:54;;;;;;;48.88;30.52;;;13.80;99.90;;;;;;5043082;28;19929;-58
2021/06/09 01:22:21;;;;;;;49.00;31.48;;;13.80;99.90;;;;;;5044228;28;20052;-58
2021/06/09 01:24:48;;;;;;;48.27;30.93;;;13.80;99.90;;;;;;5044077;28;20041;-58
2021/06/09 01:27:14;;;;;;;52.83;32.28;;;13.70;99.90;;;;;;5042263;28;20626;-58
2021/06/09 01:29:41;;;;;;;49.78;33.72;;;13.80;99.90;;;;;;5043333;28;20065;-58
2021/06/09 01:32:08;;;;;;;50.15;31.63;;;13.80;99.90;;;;;;5044184;28;20037;-59
2021/06/09 01:34:34;;;;;;;52.78;31.88;;;13.70;99.90;;;;;;5044320;28;20089;-58
2021/06/09 01:37:00;;;;;;;56.33;35.22;;;13.70;99.90;;;;;;5044167;28;20072;-58
2021/06/09 01:39:26;;;;;;;52.08;33.13;;;13.80;99.90;;;;;;5042773;28;20041;-58
2021/06/09 01:41:52;;;;;;;50.78;32.83;;;13.80;99.90;;;;;;5043911;28;20068;-58
2021/06/09 01:44:39;;;;;;;49.35;31.83;;;13.70;99.90;;;;;;5042218;28;20053;-58
2021/06/09 01:47:04;;;;;;;48.50;31.77;;;13.80;99.90;;;;;;5043910;28;20246;-58
2021/06/09 01:49:30;;;;;;;54.55;33.03;;;13.70;99.90;;;;;;5043961;28;21174;-58
2021/06/09 01:51:57;;;;;;;49.25;32.13;;;13.70;99.90;;;;;;5043997;28;20130;-59
2021/06/09 01:54:24;;;;;;;50.93;33.27;;;13.70;99.90;;;;;;5038373;28;20052;-60
2021/06/09 01:56:50;;;;;;;55.80;33.63;;;13.70;99.90;;;;;;5043208;28;20072;-58
2021/06/09 01:59:19;;;;;;;55.88;33.33;;;13.70;99.90;;;;;;5041682;28;20044;-58
2021/06/09 02:01:47;;;;;;;60.50;34.00;;;13.60;99.90;;;;;;5044043;28;20049;-58
2021/06/09 02:04:15;;;;;;;54.00;32.72;;;13.60;99.90;;;;;;5043102;28;20048;-58
2021/06/09 02:06:50;;;;;;;51.97;33.83;;;13.60;99.90;;;;;;5042963;28;20101;-59
2021/06/09 02:09:35;;;;;;;53.75;32.75;;;13.70;99.90;;;;;;5044196;28;20136;-58
2021/06/09 02:12:02;;;;;;;51.13;31.77;;;13.70;99.90;;;;;;5043911;28;20490;-58
2021/06/09 02:14:29;;;;;;;43.90;28.38;;;13.60;99.90;;;;;;5042588;28;20075;-58
2021/06/09 02:16:54;;;;;;;38.78;27.25;;;13.70;99.90;;;;;;5043383;28;20092;-58
2021/06/09 02:19:23;;;;;;;42.55;28.02;;;13.70;99.90;;;;;;5043175;28;20056;-59
2021/06/09 02:21:51;;;;;;;50.15;28.63;;;13.70;99.90;;;;;;5043007;28;20057;-58
2021/06/09 02:24:17;;;;;;;;;;;13.80;99.90;;;;;;5043586;28;20049;-58
2021/06/09 02:26:44;;;;;;;38.22;26.42;;;13.70;99.90;;;;;;5043333;28;19925;-58
2021/06/09 02:29:12;;;;;;;38.25;26.75;;;13.80;99.90;;;;;;5042647;28;20105;-58
2021/06/09 02:31:43;;;;;;;37.90;26.77;;;13.70;99.90;;;;;;5043451;28;20104;-59
2021/06/09 02:34:17;;;;;;;41.42;26.33;;;13.70;99.90;;;;;;5043050;28;20052;-58
2021/06/09 02:36:43;;;;;;;39.30;26.20;;;13.70;99.90;;;;;;5042996;28;20050;-58
2021/06/09 02:39:10;;;;;;;42.15;24.60;;;13.70;99.90;;;;;;5036993;28;20294;-58
2021/06/09 02:41:37;;;;;;;39.15;25.90;;;13.60;99.90;;;;;;5042130;28;20045;-58
2021/06/09 02:44:04;;;;;;;42.97;26.83;;;13.60;99.90;;;;;;5036656;28;20046;-59
2021/06/09 02:46:43;;;;;;;37.60;27.15;;;13.50;99.90;;;;;;5028304;28;20041;-59
2021/06/09 02:49:32;;;;;;;41.08;26.63;;;13.50;99.90;;;;;;5042503;28;20406;-58
2021/06/09 02:52:11;;;;;;;38.58;26.45;;;13.50;99.90;;;;;;5047128;28;20067;-59
2021/06/09 02:54:48;;;;;;;35.55;24.95;;;13.50;99.90;;;;;;5033574;28;20046;-58
2021/06/09 02:57:32;;;;;;;40.30;26.42;;;13.40;99.90;;;;;;5036901;28;20065;-58
2021/06/09 03:00:19;;;;;;;36.00;23.70;;;13.40;99.90;;;;;;5029408;28;20046;-58
2021/06/09 03:03:10;;;;;;;39.50;25.15;;;13.40;99.90;;;;;;5046713;28;20045;-58
2021/06/09 03:05:58;;;;;;;33.60;23.20;;;13.30;99.90;;;;;;5031671;28;20107;-58
2021/06/09 03:08:30;;;;;;;37.13;23.63;;;13.30;99.90;;;;;;5034735;28;20069;-58
2021/06/09 03:11:16;;;;;;;53.55;23.20;;;13.20;99.90;;;;;;5033390;28;20069;-58
2021/06/09 03:16:45;;;;;;;35.90;23.10;;;13.10;99.90;;;;;;5036132;28;20048;-59
2021/06/09 03:19:18;;;;;;;36.60;23.33;;;13.10;99.90;;;;;;5030994;28;20057;-58
2021/06/09 03:21:48;;;;;;;36.90;22.88;;;12.90;99.90;;;;;;5035396;28;20058;-58
2021/06/09 03:24:19;;;;;;;36.55;23.50;;;12.90;99.90;;;;;;5045150;28;20092;-58
2021/06/09 03:26:59;;;;;;;33.38;22.67;;;12.80;99.90;;;;;;5036635;28;20138;-58
2021/06/09 03:29:39;;;;;;;40.72;24.83;;;12.80;99.90;;;;;;5030483;28;20053;-58
2021/06/09 03:32:12;;;;;;;40.80;25.13;;;12.70;99.90;;;;;;5040999;28;20053;-58
2021/06/09 03:35:05;;;;;;;38.92;24.63;;;12.70;99.90;;;;;;5033259;28;20041;-58
2021/06/09 03:37:38;;;;;;;40.97;25.90;;;12.70;99.90;;;;;;5040565;28;20049;-58
2021/06/09 03:40:06;;;;;;;42.97;26.38;;;12.60;99.90;;;;;;5030764;28;20075;-59
2021/06/09 03:42:35;;;;;;;41.70;24.40;;;12.60;99.90;;;;;;5041108;28;20053;-58
2021/06/09 03:45:04;;;;;;;38.70;25.00;;;12.60;99.90;;;;;;5034087;28;20063;-58
2021/06/09 03:47:32;;;;;;;39.83;24.10;;;12.60;99.90;;;;;;5044412;28;20056;-58
2021/06/09 03:50:01;;;;;;;42.28;25.63;;;12.60;99.90;;;;;;5039195;28;20041;-58
2021/06/09 03:52:28;;;;;;;40.58;25.48;;;12.60;99.90;;;;;;5038106;28;20042;-58
2021/06/09 03:54:57;;;;;;;36.60;24.83;;;12.60;99.90;;;;;;5036164;28;20049;-58
2021/06/09 03:57:43;;;;;;;;;;;12.60;99.90;;;;;;5046849;28;20483;-58
2021/06/09 04:00:10;;;;;;;40.55;24.75;;;12.70;99.90;;;;;;5044608;28;19944;-57
2021/06/09 04:02:36;;;;;;;35.22;23.55;;;12.70;99.90;;;;;;5032970;28;20087;-58
2021/06/09 04:05:05;;;;;;;36.53;24.17;;;12.70;99.90;;;;;;5035592;28;20067;-57
2021/06/09 04:07:33;;;;;;;35.50;23.20;;;12.70;99.90;;;;;;5041720;28;20058;-58
2021/06/09 04:10:11;;;;;;;33.53;23.23;;;12.70;99.90;;;;;;5035396;28;20052;-58
2021/06/09 04:12:38;;;;;;;32.55;22.15;;;12.80;99.90;;;;;;5035748;28;20050;-58
2021/06/09 04:15:05;;;;;;;31.58;22.92;;;12.90;99.90;;;;;;5034160;28;20053;-59
2021/06/09 04:17:33;;;;;;;32.58;23.80;;;13.00;99.90;;;;;;5038361;28;20053;-58
2021/06/09 04:20:04;;;;;;;29.67;21.08;;;13.10;99.90;;;;;;5031988;28;20042;-57
2021/06/09 04:22:30;;;;;;;32.15;21.80;;;13.10;99.90;;;;;;5040955;28;20060;-59
2021/06/09 04:24:56;;;;;;;33.60;22.75;;;13.20;99.90;;;;;;5031417;28;20060;-58
2021/06/09 04:27:29;;;;;;;34.97;21.30;;;13.20;99.90;;;;;;5039356;28;20052;-58
2021/06/09 04:29:56;;;;;;;30.40;21.92;;;13.30;99.90;;;;;;5037833;28;20053;-59
2021/06/09 04:32:24;;;;;;;29.10;22.23;;;13.50;99.90;;;;;;5038905;28;20037;-57
2021/06/09 04:34:55;;;;;;;27.77;21.50;;;13.50;99.90;;;;;;5029245;28;20390;-58
2021/06/09 04:37:32;;;;;;;29.35;20.55;;;13.70;99.90;;;;;;5042992;28;20046;-57
2021/06/09 04:39:58;;;;;;;27.92;20.25;;;13.70;99.90;;;;;;5045101;28;20041;-57
2021/06/09 04:42:24;;;;;;;28.25;21.38;;;13.80;99.90;;;;;;5034205;28;20359;-58
2021/06/09 04:44:50;;;;;;;29.17;21.90;;;13.90;99.90;;;;;;5043955;28;20046;-60
2021/06/09 04:47:16;;;;;;;29.05;21.80;;;13.90;99.90;;;;;;5030937;28;20050;-58
2021/06/09 04:49:44;;;;;;;29.67;20.67;;;14.00;99.90;;;;;;5053419;28;20528;-58
2021/06/09 04:52:11;;;;;;;25.17;19.55;;;14.10;99.90;;;;;;5040391;28;20039;-58
2021/06/09 04:54:38;;;;;;;24.10;18.77;;;14.20;99.90;;;;;;5040625;28;20045;-58
2021/06/09 04:57:06;;;;;;;24.10;18.65;;;14.40;99.90;;;;;;5043460;28;20041;-58
2021/06/09 04:59:32;;;;;;;25.00;18.52;;;14.40;99.90;;;;;;5034769;28;20129;-58
2021/06/09 05:01:58;;;;;;;24.70;17.17;;;14.60;99.90;;;;;;5035938;28;20041;-58
2021/06/09 05:04:24;;;;;;;20.83;14.98;;;14.70;99.90;;;;;;5037873;28;20042;-58
2021/06/09 05:06:50;;;;;;;23.15;16.35;;;14.80;99.90;;;;;;5040413;28;20050;-58
2021/06/09 05:09:17;;;;;;;18.70;14.52;;;15.00;99.90;;;;;;5028331;28;20059;-58
2021/06/09 05:12:03;;;;;;;17.27;13.57;;;15.10;99.90;;;;;;5037527;28;20053;-58
2021/06/09 05:14:35;;;;;;;20.83;13.98;;;15.20;99.90;;;;;;5034560;28;20046;-58
2021/06/09 05:17:03;;;;;;;18.40;14.55;;;15.40;99.90;;;;;;5041851;28;20050;-58
2021/06/09 05:19:31;;;;;;;20.60;14.38;;;15.50;99.90;;;;;;5044108;28;20037;-58
2021/06/09 05:22:26;;;;;;;16.85;13.00;;;15.70;99.90;;;;;;5033248;28;20057;-59
2021/06/09 05:25:14;;;;;;;17.63;11.80;;;15.80;99.90;;;;;;5026264;28;20300;-58
2021/06/09 05:27:42;;;;;;;16.80;11.82;;;16.00;99.90;;;;;;5030118;28;20046;-58
2021/06/09 05:30:10;;;;;;;15.50;10.73;;;16.00;99.90;;;;;;5036503;28;20057;-58
2021/06/09 05:32:37;;;;;;;18.55;10.75;;;16.20;99.90;;;;;;5035513;28;20101;-59
2021/06/09 05:35:05;;;;;;;16.85;10.27;;;16.30;99.90;;;;;;5036893;28;20060;-59
2021/06/09 05:37:33;;;;;;;10.88;9.30;;;16.40;99.90;;;;;;5028388;28;20053;-58
2021/06/09 05:40:07;;;;;;;12.85;8.20;;;16.60;99.90;;;;;;5042919;28;20046;-58
2021/06/09 05:42:34;;;;;;;15.48;8.02;;;16.70;99.90;;;;;;5032308;28;20091;-58
2021/06/09 05:45:05;;;;;;;13.52;7.20;;;16.80;99.90;;;;;;5037847;28;20065;-58
2021/06/09 05:47:31;;;;;;;12.38;7.15;;;17.00;99.90;;;;;;5031801;28;20069;-58
2021/06/09 05:50:13;;;;;;;10.20;7.50;;;17.20;99.90;;;;;;5039188;28;20068;-58
2021/06/09 05:52:39;;;;;;;9.98;7.18;;;17.30;99.90;;;;;;5041503;28;20416;-58
2021/06/09 05:55:06;;;;;;;9.13;6.43;;;17.50;99.90;;;;;;5040731;28;20045;-58
2021/06/09 05:57:32;;;;;;;9.25;6.13;;;17.60;99.90;;;;;;5032969;28;20050;-58
2021/06/09 05:59:58;;;;;;;8.93;6.78;;;17.80;99.90;;;;;;5026039;28;20139;-58
2021/06/09 06:02:28;;;;;;;10.48;6.38;;;18.00;99.90;;;;;;5024890;28;20486;-58
2021/06/09 06:04:58;;;;;;;9.88;5.80;;;18.20;99.90;;;;;;5029509;28;20061;-58
2021/06/09 06:07:24;;;;;;;7.07;5.68;;;18.40;99.90;;;;;;5032572;28;20050;-59
2021/06/09 06:09:53;;;;;;;11.07;5.57;;;18.60;99.90;;;;;;5025929;28;20049;-58
2021/06/09 06:12:23;;;;;;;8.80;5.75;;;18.80;99.90;;;;;;5032733;28;20056;-58
2021/06/09 06:14:49;;;;;;;14.77;5.28;;;19.00;99.90;;;;;;5038471;28;20042;-58
2021/06/09 06:17:17;;;;;;;;;;;19.20;99.90;;;;;;5041881;28;20049;-58
2021/06/09 06:19:48;;;;;;;11.73;4.82;;;19.40;99.90;;;;;;5040866;28;19928;-58
2021/06/09 06:22:14;;;;;;;9.98;3.75;;;19.50;99.90;;;;;;5037967;28;20053;-58
2021/06/09 06:24:42;;;;;;;13.00;4.55;;;19.70;99.90;;;;;;5032127;28;20042;-58
2021/06/09 06:27:08;;;;;;;7.70;4.00;;;19.90;99.90;;;;;;5024733;28;20046;-58
2021/06/09 06:29:37;;;;;;;8.00;3.65;;;20.10;99.90;;;;;;5041293;28;20037;-58
2021/06/09 06:32:06;;;;;;;6.05;3.75;;;20.20;99.90;;;;;;5039457;28;20049;-58
2021/06/09 06:34:41;;;;;;;5.15;3.30;;;20.30;99.90;;;;;;5037156;28;20742;-58
2021/06/09 06:37:08;;;;;;;10.57;3.58;;;20.50;99.90;;;;;;5043269;28;20045;-58
2021/06/09 06:39:35;;;;;;;8.57;3.40;;;20.60;99.90;;;;;;5032792;28;20038;-58
2021/06/09 06:42:01;;;;;;;7.82;4.07;;;20.80;99.90;;;;;;5030170;28;20073;-58
2021/06/09 06:44:27;;;;;;;13.38;3.33;;;20.80;99.90;;;;;;5039334;28;20153;-58
2021/06/09 06:46:54;;;;;;;7.63;3.22;;;21.00;99.90;;;;;;5035793;28;20073;-58
2021/06/09 06:49:21;;;;;;;10.83;3.60;;;21.10;99.90;;;;;;5038429;28;20030;-60
2021/06/09 06:51:51;;;;;;;20.80;3.33;;;21.30;99.60;;;;;;5033746;28;20316;-59
2021/06/09 06:54:19;;;;;;;12.13;3.78;;;21.40;99.90;;;;;;5042786;28;20045;-58
2021/06/09 06:56:49;;;;;;;15.75;4.47;;;21.50;99.90;;;;;;5035760;28;20049;-58
2021/06/09 06:59:16;;;;;;;14.13;3.65;;;21.60;99.90;;;;;;5035178;28;20049;-59
2021/06/09 07:01:43;;;;;;;18.53;3.83;;;21.60;99.90;;;;;;5037983;28;20049;-58
2021/06/09 07:04:10;;;;;;;8.27;3.60;;;21.80;99.90;;;;;;5033692;28;20049;-59
2021/06/09 07:06:36;;;;;;;11.20;3.13;;;21.80;99.60;;;;;;5041668;28;20130;-59
2021/06/09 07:09:03;;;;;;;12.73;3.30;;;21.90;99.90;;;;;;5040498;28;20046;-60
2021/06/09 07:11:31;;;;;;;;;;;22.00;99.90;;;;;;5043152;28;20041;-60
2021/06/09 07:13:59;;;;;;;6.35;2.83;;;22.20;97.90;;;;;;5039526;28;20585;-59
2021/06/09 07:16:30;;;;;;;5.35;2.15;;;22.30;99.10;;;;;;5040607;28;20572;-60
2021/06/09 07:18:57;;;;;;;5.95;2.80;;;22.40;98.80;;;;;;5038629;28;20563;-60
2021/06/09 07:21:23;;;;;;;4.85;2.60;;;22.20;99.90;;;;;;5041410;28;20052;-58
2021/06/09 07:23:50;;;;;;;7.10;3.13;;;21.80;99.90;;;;;;5036566;28;20049;-59
2021/06/09 07:26:18;;;;;;;7.75;4.03;;;21.40;99.90;;;;;;5038171;28;20493;-58
2021/06/09 07:28:50;;;;;;;3.30;3.00;;;21.10;99.90;;;;;;5036849;28;20038;-58
2021/06/09 07:31:21;;;;;;;7.43;3.70;;;20.70;99.90;;;;;;5041679;28;20076;-59
2021/06/09 07:33:48;;;;;;;6.38;3.10;;;20.40;99.90;;;;;;5040440;28;20068;-59
2021/06/09 07:36:19;;;;;;;6.23;3.60;;;20.10;99.90;;;;;;5039977;28;20037;-59
2021/06/09 07:38:50;;;;;;;4.60;3.22;;;20.00;99.90;;;;;;5045044;28;20056;-59
2021/06/09 07:41:17;;;;;;;4.40;3.58;;;19.90;99.90;;;;;;5043744;28;20124;-59
2021/06/09 07:43:47;;;;;;;5.22;4.30;;;19.90;99.90;;;;;;5044374;28;20107;-59
2021/06/09 07:46:17;;;;;;;7.18;4.80;;;19.90;99.90;;;;;;5042583;28;20052;-59
2021/06/09 07:48:48;;;;;;;13.02;5.03;;;19.90;99.90;;;;;;5043787;28;20041;-71
2021/06/09 07:51:15;;;;;;;6.63;4.60;;;19.80;99.90;;;;;;5035350;28;20070;-70
2021/06/09 07:53:41;;;;;;;7.90;5.43;;;19.70;99.90;;;;;;5044711;28;20037;-71
2021/06/09 07:56:12;;;;;;;8.43;6.05;;;19.60;99.90;;;;;;5044920;28;20947;-71
2021/06/09 07:58:39;;;;;;;10.40;5.85;;;19.60;99.90;;;;;;5040816;28;20104;-70
2021/06/09 08:01:06;;;;;;;7.43;5.22;;;19.50;99.90;;;;;;5040235;28;20060;-72
2021/06/09 08:03:35;;;;;;;9.43;6.53;;;19.50;99.90;;;;;;5049896;28;20045;-72
2021/06/09 08:06:03;;;;;;;8.63;6.05;;;19.60;99.90;;;;;;5038627;28;20050;-70
2021/06/09 08:08:31;;;;;;;8.73;6.40;;;19.60;99.90;;;;;;5039597;28;20048;-69
2021/06/09 08:10:58;;;;;;;11.63;5.50;;;19.70;99.90;;;;;;5042708;28;20048;-68
2021/06/09 08:13:27;;;;;;;7.28;5.72;;;20.00;99.90;;;;;;5040606;28;20057;-68
2021/06/09 08:15:53;;;;;;;8.70;7.80;;;20.20;99.90;;;;;;5036231;28;20050;-69
2021/06/09 08:18:19;;;;;;;12.40;8.18;;;20.40;99.90;;;;;;5037734;28;20037;-69
2021/06/09 08:21:09;;;;;;;9.35;6.28;;;20.40;99.90;;;;;;5031698;28;20056;-68
2021/06/09 08:23:47;;;;;;;9.05;8.15;;;20.40;99.90;;;;;;5052787;28;20147;-70
2021/06/09 08:26:15;;;;;;;10.25;9.25;;;20.50;99.90;;;;;;5039043;28;20041;-70
2021/06/09 08:28:43;;;;;;;13.85;11.07;;;20.50;99.90;;;;;;5036290;28;20037;-70
2021/06/09 08:31:12;;;;;;;9.48;8.27;;;20.50;99.90;;;;;;5030941;28;20088;-66
2021/06/09 08:33:41;;;;;;;10.43;8.90;;;20.60;99.90;;;;;;5034736;28;20033;-68
2021/06/09 08:36:10;;;;;;;11.13;9.23;;;20.80;99.90;;;;;;5032439;28;20038;-68
2021/06/09 08:38:44;;;;;;;14.38;11.05;;;21.00;99.90;;;;;;5034755;28;20072;-68
2021/06/09 08:41:13;;;;;;;12.57;10.38;;;21.00;99.90;;;;;;5035713;28;20041;-69
2021/06/09 08:43:41;;;;;;;11.82;9.70;;;21.10;99.90;;;;;;5039908;28;20473;-67
2021/06/09 08:46:09;;;;;;;11.27;10.18;;;21.20;99.90;;;;;;5033452;28;20037;-69
2021/06/09 08:48:40;;;;;;;13.88;10.65;;;21.20;99.90;;;;;;5032590;28;20053;-69
2021/06/09 08:51:10;;;;;;;15.32;13.07;;;21.20;99.90;;;;;;5041645;28;20050;-69
2021/06/09 08:53:40;;;;;;;12.85;11.55;;;21.30;99.90;;;;;;5040642;28;20048;-68
2021/06/09 08:56:06;;;;;;;13.50;11.35;;;21.30;99.90;;;;;;5040321;28;20045;-68
2021/06/09 08:58:35;;;;;;;12.98;9.70;;;21.40;99.90;;;;;;5040568;28;20053;-69
2021/06/09 09:01:02;;;;;;;12.10;10.63;;;21.50;99.90;;;;;;5043200;28;20179;-69
2021/06/09 09:03:29;;;;;;;12.07;10.07;;;21.50;99.90;;;;;;5043901;28;20053;-68
2021/06/09 09:05:55;;;;;;;11.70;10.20;;;21.70;99.90;;;;;;5039969;28;20512;-69
2021/06/09 09:08:22;;;;;;;14.35;9.90;;;21.70;99.90;;;;;;5044390;28;20072;-69
2021/06/09 09:10:48;;;;;;;9.32;8.35;;;21.70;99.90;;;;;;5041529;28;20053;-69
2021/06/09 09:13:14;;;;;;;11.80;9.90;;;21.80;99.90;;;;;;5042788;28;20052;-70
2021/06/09 09:15:40;;;;;;;12.10;9.75;;;21.90;99.90;;;;;;5041922;28;20056;-69
2021/06/09 09:18:08;;;;;;;14.18;11.25;;;22.00;99.90;;;;;;5044216;28;20042;-68
2021/06/09 09:20:43;;;;;;;10.85;9.57;;;22.10;99.90;;;;;;5042591;28;20072;-68
2021/06/09 09:23:30;;;;;;;13.20;11.15;;;22.10;99.90;;;;;;5038189;28;20445;-69
2021/06/09 09:25:58;;;;;;;11.77;10.10;;;22.20;99.90;;;;;;5040108;28;20045;-68
2021/06/09 09:28:33;;;;;;;11.27;8.77;;;22.20;99.90;;;;;;5031754;28;20121;-68
2021/06/09 09:31:12;;;;;;;15.65;10.05;;;22.20;99.90;;;;;;5040347;28;20053;-68
2021/06/09 09:33:39;;;;;;;12.13;10.13;;;22.20;99.90;;;;;;5041501;28;20507;-68
2021/06/09 09:36:27;;;;;;;11.70;10.00;;;22.20;99.90;;;;;;5040885;28;20064;-68
2021/06/09 09:38:54;;;;;;;11.23;9.65;;;22.20;99.90;;;;;;5033798;28;20061;-67
2021/06/09 09:41:28;;;;;;;13.15;10.20;;;22.20;99.90;;;;;;5043219;28;20041;-68
2021/06/09 09:44:01;;;;;;;16.75;9.88;;;22.20;99.90;;;;;;5033796;28;20041;-67
2021/06/09 09:46:44;;;;;;;11.95;10.70;;;22.30;99.90;;;;;;5036585;28;20059;-66
2021/06/09 09:49:15;;;;;;;12.35;10.70;;;22.40;99.90;;;;;;5041903;28;20045;-69
2021/06/09 09:51:55;;;;;;;12.73;10.85;;;22.40;99.90;;;;;;5042845;28;20489;-69
2021/06/09 09:54:30;;;;;;;13.00;11.40;;;22.50;99.90;;;;;;5029562;28;20052;-69
2021/06/09 09:56:58;;;;;;;13.15;9.80;;;22.80;99.90;;;;;;5026731;28;20041;-70
2021/06/09 09:59:26;;;;;;;13.75;10.10;;;22.80;99.90;;;;;;5036513;28;20055;-70
2021/06/09 10:01:54;;;;;;;10.90;9.80;;;23.00;99.90;;;;;;5041673;28;20053;-67
2021/06/09 10:04:28;;;;;;;11.30;10.18;;;23.10;99.90;;;;;;5042580;28;20042;-70
2021/06/09 10:06:57;;;;;;;15.07;10.80;;;23.10;99.90;;;;;;5042631;28;20060;-70
2021/06/09 10:09:26;;;;;;;;;;;23.10;99.90;;;;;;5036707;28;20046;-70
2021/06/09 10:11:54;;;;;;;9.35;6.82;;;23.20;99.90;;;;;;5040922;28;20324;-70
2021/06/09 10:14:27;;;;;;;11.30;9.80;;;23.30;99.90;;;;;;5035619;28;20042;-70
2021/06/09 10:16:58;;;;;;;8.93;8.02;;;23.50;99.90;;;;;;5031974;28;20606;-72
2021/06/09 10:19:28;;;;;;;10.05;8.23;;;23.60;99.90;;;;;;5036915;28;20490;-69
2021/06/09 10:22:03;;;;;;;9.25;8.15;;;23.80;99.90;;;;;;5040495;28;20103;-71
2021/06/09 10:24:52;;;;;;;10.23;8.90;;;24.00;99.90;;;;;;5036248;28;20056;-71
2021/06/09 10:27:33;;;;;;;11.18;8.63;;;24.10;99.90;;;;;;5035799;28;20048;-72
2021/06/09 10:29:59;;;;;;;9.48;7.95;;;24.20;99.90;;;;;;5034716;28;20445;-71
2021/06/09 10:32:31;;;;;;;9.43;7.63;;;24.40;99.90;;;;;;5032317;28;20046;-72
2021/06/09 10:34:57;;;;;;;11.18;9.35;;;24.40;99.90;;;;;;5028954;28;20122;-71
2021/06/09 10:37:24;;;;;;;11.37;9.23;;;24.50;99.90;;;;;;5057186;28;20049;-71
2021/06/09 10:39:51;;;;;;;11.30;10.13;;;24.60;99.90;;;;;;5041740;28;20321;-71
2021/06/09 10:42:18;;;;;;;11.70;10.50;;;24.60;99.90;;;;;;5038296;28;20069;-70
2021/06/09 10:44:45;;;;;;;;;;;24.60;99.80;;;;;;5038637;28;20061;-71
2021/06/09 10:47:23;;;;;;;13.65;10.60;;;24.70;98.20;;;;;;5036255;28;19932;-72
2021/06/09 10:49:50;;;;;;;12.25;10.10;;;24.60;98.90;;;;;;5039862;28;20146;-69
2021/06/09 10:52:16;;;;;;;12.50;9.88;;;24.60;98.60;;;;;;5034893;28;20103;-72
2021/06/09 10:54:42;;;;;;;12.87;10.93;;;24.60;99.00;;;;;;5029806;28;20139;-70
2021/06/09 10:57:09;;;;;;;10.30;8.70;;;24.60;98.80;;;;;;5040012;28;20045;-70
2021/06/09 10:59:35;;;;;;;11.63;10.40;;;24.70;99.10;;;;;;5040910;28;20076;-69
2021/06/09 11:02:06;;;;;;;12.18;9.82;;;24.80;99.30;;;;;;5037397;28;20045;-72
2021/06/09 11:04:41;;;;;;;11.82;9.70;;;24.90;98.40;;;;;;5033486;28;20048;-71
2021/06/09 11:07:26;;;;;;;12.85;10.27;;;24.90;97.60;;;;;;5031275;28;20428;-72
2021/06/09 11:09:52;;;;;;;12.05;9.98;;;25.10;96.10;;;;;;5041264;28;20049;-70
2021/06/09 11:12:20;;;;;;;12.45;10.00;;;25.30;97.40;;;;;;5041671;28;20053;-69
2021/06/09 11:14:52;;;;;;;12.63;11.02;;;25.40;97.10;;;;;;5038904;28;20121;-70
2021/06/09 11:17:46;;;;;;;9.88;8.88;;;25.50;95.90;;;;;;5044081;28;20080;-70
2021/06/09 11:20:29;;;;;;;12.00;10.88;;;25.70;95.70;;;;;;5040721;28;20059;-68
2021/06/09 11:23:24;;;;;;;12.23;9.60;;;25.80;94.70;;;;;;5041592;28;20049;-69
2021/06/09 11:25:50;;;;;;;11.43;10.32;;;25.90;95.00;;;;;;5037169;28;20060;-68
2021/06/09 11:28:20;;;;;;;11.10;9.90;;;25.90;94.20;;;;;;5042537;28;20051;-70
2021/06/09 11:30:50;;;;;;;10.85;9.75;;;26.10;94.90;;;;;;5041824;28;20045;-70
2021/06/09 11:33:32;;;;;;;12.70;11.25;;;26.20;92.90;;;;;;5045822;28;20493;-70
2021/06/09 11:35:59;;;;;;;12.57;9.77;;;26.20;91.90;;;;;;5036898;28;20509;-70
2021/06/09 11:38:42;;;;;;;10.10;9.10;;;26.30;93.60;;;;;;5042278;28;20089;-70
2021/06/09 11:41:15;;;;;;;10.82;9.70;;;26.40;92.40;;;;;;5038316;28;20045;-70
2021/06/09 11:43:47;;;;;;;14.43;9.30;;;26.50;89.70;;;;;;5032527;28;20046;-70
2021/06/09 11:46:22;;;;;;;10.88;8.63;;;26.30;90.30;;;;;;5039824;28;20412;-71
2021/06/09 11:49:02;;;;;;;8.82;7.93;;;26.20;90.20;;;;;;5031871;28;20046;-70
2021/06/09 11:51:38;;;;;;;11.18;8.73;;;26.30;89.50;;;;;;5033884;28;20075;-70
2021/06/09 11:54:05;;;;;;;9.43;8.20;;;26.30;83.00;;;;;;5037459;28;20037;-68
2021/06/09 11:56:38;;;;;;;12.20;10.93;;;26.60;88.00;;;;;;5040223;28;20080;-67
2021/06/09 11:59:06;;;;;;;13.27;10.43;;;27.00;76.60;;;;;;5031610;28;20042;-66
2021/06/09 12:01:43;;;;;;;13.73;11.63;;;27.60;81.20;;;;;;5038557;28;20084;-66
2021/06/09 12:04:28;;;;;;;11.48;10.27;;;27.90;78.20;;;;;;5040698;28;20107;-66
2021/06/09 12:07:06;;;;;;;11.85;10.70;;;28.30;73.70;;;;;;5039043;28;20037;-67
2021/06/09 12:09:37;;;;;;;9.93;8.93;;;28.50;71.60;;;;;;5037949;28;20048;-67
2021/06/09 12:12:13;;;;;;;10.82;9.38;;;29.00;72.70;;;;;;5038526;28;20052;-66
2021/06/09 12:14:43;;;;;;;9.93;8.93;;;29.50;58.30;;;;;;5042187;28;20056;-66
2021/06/09 12:17:11;;;;;;;15.52;10.70;;;29.90;55.70;;;;;;5044545;28;20064;-67
2021/06/09 12:19:38;;;;;;;12.65;9.57;;;29.90;53.50;;;;;;5038484;28;20065;-67
2021/06/09 12:22:26;;;;;;;9.50;8.27;;;30.10;55.70;;;;;;5039930;28;20068;-68
2021/06/09 12:25:07;;;;;;;9.93;9.02;;;30.20;53.90;;;;;;5043720;28;20069;-68
2021/06/09 12:27:35;;;;;;;10.50;9.52;;;30.40;53.10;;;;;;5039979;28;20047;-68
2021/06/09 12:30:08;;;;;;;10.93;9.93;;;30.50;51.60;;;;;;5040717;28;20052;-67
2021/06/09 12:32:36;;;;;;;10.43;8.88;;;30.00;51.40;;;;;;5044001;28;20570;-68
2021/06/09 12:35:10;;;;;;;11.45;10.35;;;29.50;55.40;;;;;;5042981;28;20048;-67
2021/06/09 12:37:59;;;;;;;10.30;9.18;;;28.60;54.50;;;;;;5041188;28;20051;-68
2021/06/09 12:40:25;;;;;;;;;;;28.10;55.90;;;;;;5042288;28;20050;-68
2021/06/09 12:42:58;;;;;;;9.00;7.65;;;28.90;57.10;;;;;;5041680;28;20337;-68
2021/06/09 12:45:31;;;;;;;9.07;8.18;;;29.30;50.40;;;;;;5042408;28;20052;-68
2021/06/09 12:48:05;;;;;;;9.93;7.68;;;29.60;51.60;;;;;;5040482;28;20049;-68
2021/06/09 12:50:38;;;;;;;12.30;7.55;;;30.10;53.00;;;;;;5038470;28;20046;-67
2021/06/09 12:53:18;;;;;;;7.78;7.07;;;29.90;49.10;;;;;;5034155;28;20108;-68
2021/06/09 12:55:52;;;;;;;10.85;9.75;;;29.80;50.70;;;;;;5038337;28;20149;-68